Time;durP1;ratioP1;P1;durP2;ratioP2;P2;SDS_P1;SDS_P2;PMS_P1;PMS_P2;Temp;Humidity;BMP_temperature;BMP_pressure;BME280_temperature;BME280_humidity;BME280_pressure;Samples;Min_cycle;Max_cycle;Signal;HPM_P1;HPM_P2
2022/07/21 00:01:11;;;;;;;10.93;8.90;;;;;;;19.09;83.98;101574.38;5263727;28;20040;-74
2022/07/21 00:03:43;;;;;;;9.07;7.90;;;;;;;19.21;83.64;101568.69;5281526;28;20328;-75
2022/07/21 00:06:14;;;;;;;10.33;8.87;;;;;;;19.08;83.85;101577.97;5281612;28;20141;-74
2022/07/21 00:08:46;;;;;;;10.67;8.83;;;;;;;19.16;83.65;101573.28;5281228;28;20021;-75
2022/07/21 00:11:17;;;;;;;9.82;8.80;;;;;;;19.12;84.07;101571.63;5281500;28;20037;-74
2022/07/21 00:13:49;;;;;;;10.45;8.88;;;;;;;19.16;83.98;101573.28;5281658;28;20117;-74
2022/07/21 00:16:21;;;;;;;10.40;9.10;;;;;;;18.96;84.78;101573.97;5280997;28;20089;-75
2022/07/21 00:18:52;;;;;;;11.43;8.93;;;;;;;19.13;84.30;101576.88;5281426;28;20028;-76
2022/07/21 00:21:24;;;;;;;8.80;7.93;;;;;;;18.99;84.84;101573.00;5281232;28;20113;-77
2022/07/21 00:23:55;;;;;;;11.47;8.70;;;;;;;18.87;85.52;101577.81;5282139;28;20037;-76
2022/07/21 00:26:27;;;;;;;10.60;8.83;;;;;;;18.95;85.19;101582.81;5285861;28;20031;-75
2022/07/21 00:28:58;;;;;;;9.57;8.57;;;;;;;19.00;84.94;101580.88;5285672;28;20366;-74
2022/07/21 00:31:30;;;;;;;9.40;8.47;;;;;;;18.82;85.48;101573.56;5285343;28;20479;-74
2022/07/21 00:34:01;;;;;;;9.93;8.90;;;;;;;18.87;85.53;101576.91;5285440;28;20047;-76
2022/07/21 00:36:33;;;;;;;10.13;9.13;;;;;;;18.83;86.02;101573.50;5285564;28;20036;-74
2022/07/21 00:39:04;;;;;;;10.33;9.30;;;;;;;18.81;86.09;101585.91;5285092;28;20042;-75
2022/07/21 00:41:36;;;;;;;9.97;8.97;;;;;;;18.70;86.49;101585.41;5284935;28;20115;-75
2022/07/21 00:44:23;;;;;;;11.60;10.50;;;;;;;18.56;87.86;101586.75;5284705;28;20030;-75
2022/07/21 00:46:54;;;;;;;11.52;9.77;;;;;;;18.63;87.52;101579.47;5285227;28;20029;-75
2022/07/21 00:49:27;;;;;;;10.55;9.48;;;;;;;18.59;88.10;101576.09;5284984;28;20119;-75
2022/07/21 00:51:59;;;;;;;10.80;9.63;;;;;;;18.46;88.92;101576.53;5266954;28;20103;-74
2022/07/21 00:54:30;;;;;;;13.73;10.23;;;;;;;18.44;88.75;101581.88;5284534;28;20460;-75
2022/07/21 00:57:02;;;;;;;11.43;10.27;;;;;;;18.46;89.10;101585.31;5284548;28;20111;-73
2022/07/21 00:59:34;;;;;;;11.13;9.85;;;;;;;18.45;88.98;101583.59;5285509;28;20043;-74
2022/07/21 01:02:05;;;;;;;12.95;11.02;;;;;;;18.52;89.11;101578.97;5284581;28;20028;-75
2022/07/21 01:04:37;;;;;;;12.10;9.77;;;;;;;18.54;88.81;101571.88;5267027;28;20029;-74
2022/07/21 01:07:08;;;;;;;12.03;10.80;;;;;;;18.40;89.24;101560.00;5284492;28;20102;-74
2022/07/21 01:09:40;;;;;;;12.83;11.53;;;;;;;18.37;89.75;101557.47;5266173;28;20024;-74
2022/07/21 01:12:11;;;;;;;11.83;10.63;;;;;;;18.51;89.49;101556.97;5284180;28;20106;-76
2022/07/21 01:14:43;;;;;;;11.13;10.10;;;;;;;18.37;90.12;101549.53;5284133;28;20035;-76
2022/07/21 01:17:15;;;;;;;11.55;10.45;;;;;;;18.43;90.25;101551.09;5284101;28;20036;-76
2022/07/21 01:19:46;;;;;;;13.03;11.17;;;;;;;18.33;90.57;101554.97;5284133;28;20028;-74
2022/07/21 01:22:17;;;;;;;12.27;11.00;;;;;;;18.28;90.65;101547.19;5284005;28;20020;-75
2022/07/21 01:24:49;;;;;;;12.90;11.40;;;;;;;18.24;90.87;101542.94;5283911;28;20064;-73
2022/07/21 01:27:25;;;;;;;14.83;11.83;;;;;;;18.17;91.48;101555.44;5284175;28;20111;-75
2022/07/21 01:29:56;;;;;;;11.95;10.75;;;;;;;18.27;90.83;101553.38;5284240;28;20024;-74
2022/07/21 01:32:28;;;;;;;12.07;10.87;;;;;;;18.21;91.23;101546.53;5283824;28;20448;-74
2022/07/21 01:34:59;;;;;;;12.40;11.10;;;;;;;18.34;90.82;101551.44;5265572;28;20522;-74
2022/07/21 01:37:33;;;;;;;13.10;11.77;;;;;;;18.43;90.73;101560.81;5282885;28;20032;-74
2022/07/21 01:42:57;;;;;;;15.00;11.70;;;;;;;18.46;90.31;101552.78;5283770;28;20052;-74
2022/07/21 01:45:28;;;;;;;12.70;11.60;;;;;;;18.46;90.17;101548.34;5283677;28;20263;-74
2022/07/21 01:48:00;;;;;;;12.80;10.43;;;;;;;18.38;90.28;101556.53;5284053;28;20464;-73
2022/07/21 01:50:31;;;;;;;11.80;10.60;;;;;;;18.38;90.65;101564.44;5283514;28;20111;-75
2022/07/21 01:53:03;;;;;;;13.90;12.10;;;;;;;18.34;90.99;101559.34;5265796;28;20046;-75
2022/07/21 01:55:35;;;;;;;11.90;10.77;;;;;;;18.45;90.88;101557.22;5283251;28;20086;-74
2022/07/21 01:58:06;;;;;;;12.75;11.43;;;;;;;18.45;90.54;101556.31;5283823;28;20029;-75
2022/07/21 02:00:37;;;;;;;12.57;11.30;;;;;;;18.36;90.86;101554.88;5265859;28;20029;-76
2022/07/21 02:03:09;;;;;;;12.63;11.43;;;;;;;18.36;90.89;101552.22;5283425;28;20115;-75
2022/07/21 02:05:40;;;;;;;15.37;12.20;;;;;;;18.33;91.00;101553.19;5283340;28;20068;-74
2022/07/21 02:08:11;;;;;;;13.80;12.37;;;;;;;18.26;91.45;101548.16;5282980;28;20035;-74
2022/07/21 02:10:43;;;;;;;15.63;12.60;;;;;;;18.25;91.47;101557.00;5282706;28;20159;-73
2022/07/21 02:13:14;;;;;;;13.93;12.50;;;;;;;18.13;92.95;101561.75;5282617;28;20045;-75
2022/07/21 02:15:46;;;;;;;16.80;13.77;;;;;;;18.10;92.67;101559.22;5264983;28;20399;-75
2022/07/21 02:18:18;;;;;;;13.80;12.33;;;;;;;18.04;93.43;101559.41;5283363;28;20286;-76
2022/07/21 02:20:53;;;;;;;15.10;13.52;;;;;;;18.07;93.15;101556.66;5282763;28;20459;-75
2022/07/21 02:23:25;;;;;;;15.45;13.90;;;;;;;17.91;94.80;101558.06;5264700;28;20028;-75
2022/07/21 02:25:56;;;;;;;;;;;;;;;18.09;92.99;101546.91;5283192;28;20101;-76
2022/07/21 02:28:28;;;;;;;16.17;14.50;;;;;;;18.09;93.74;101543.44;5282921;28;19913;-76
2022/07/21 02:30:59;;;;;;;14.63;13.10;;;;;;;18.13;93.59;101534.50;5282567;28;20024;-74
2022/07/21 02:33:31;;;;;;;14.73;13.37;;;;;;;18.14;93.20;101534.44;5282730;28;20419;-75
2022/07/21 02:36:02;;;;;;;16.13;14.13;;;;;;;18.10;93.62;101539.91;5282205;28;20506;-76
2022/07/21 02:38:34;;;;;;;15.55;13.95;;;;;;;18.22;93.41;101544.75;5282373;28;20060;-74
2022/07/21 02:41:06;;;;;;;15.87;14.10;;;;;;;18.06;93.61;101543.53;5282323;28;20043;-75
2022/07/21 02:43:37;;;;;;;15.30;13.87;;;;;;;18.12;93.67;101538.06;5283232;28;20072;-75
2022/07/21 02:46:08;;;;;;;16.17;14.43;;;;;;;18.12;93.34;101544.19;5264449;28;20329;-75
2022/07/21 02:48:40;;;;;;;16.13;14.43;;;;;;;18.10;93.36;101530.19;5264189;28;20063;-76
2022/07/21 02:51:11;;;;;;;16.50;15.00;;;;;;;18.01;93.87;101533.97;5282451;28;20039;-76
2022/07/21 02:53:42;;;;;;;17.47;15.63;;;;;;;18.04;94.08;101540.94;5282217;28;20032;-76
2022/07/21 02:56:15;;;;;;;16.63;15.00;;;;;;;18.09;94.01;101538.16;5282455;28;20039;-75
2022/07/21 02:58:46;;;;;;;17.30;15.70;;;;;;;18.01;93.80;101536.59;5282196;28;20297;-75
2022/07/21 03:01:18;;;;;;;17.30;15.67;;;;;;;18.03;94.12;101539.19;5282619;28;20051;-75
2022/07/21 03:03:50;;;;;;;16.90;15.30;;;;;;;18.03;93.98;101536.56;5282031;28;20044;-74
2022/07/21 03:06:21;;;;;;;17.37;15.57;;;;;;;18.18;93.83;101538.72;5282110;28;20123;-74
2022/07/21 03:08:53;;;;;;;17.47;15.50;;;;;;;18.18;93.36;101543.16;5282409;28;20036;-74
2022/07/21 03:11:25;;;;;;;16.93;15.20;;;;;;;18.14;93.73;101536.22;5282176;28;20033;-75
2022/07/21 03:13:56;;;;;;;17.80;15.57;;;;;;;18.22;93.60;101534.19;5282718;28;20032;-76
2022/07/21 03:16:28;;;;;;;17.57;15.70;;;;;;;18.23;93.06;101528.88;5282140;28;20407;-75
2022/07/21 03:18:59;;;;;;;17.80;14.77;;;;;;;18.22;93.05;101527.16;5264138;28;20036;-75
2022/07/21 03:21:30;;;;;;;18.27;16.13;;;;;;;18.24;92.99;101527.13;5283035;28;20119;-75
2022/07/21 03:24:02;;;;;;;17.50;15.70;;;;;;;18.22;92.83;101527.16;5282275;28;20090;-75
2022/07/21 03:26:38;;;;;;;17.47;15.00;;;;;;;18.32;92.99;101530.34;5281949;28;20098;-75
2022/07/21 03:29:09;;;;;;;17.58;15.80;;;;;;;18.25;92.66;101542.00;5281742;28;20025;-74
2022/07/21 03:31:41;;;;;;;19.30;16.07;;;;;;;18.20;92.88;101539.53;5281871;28;20399;-74
2022/07/21 03:34:12;;;;;;;18.57;15.10;;;;;;;18.23;92.74;101536.78;5281858;28;20037;-75
2022/07/21 03:36:44;;;;;;;16.90;15.27;;;;;;;18.21;92.57;101537.78;5281900;28;20040;-75
2022/07/21 03:39:15;;;;;;;19.00;16.33;;;;;;;18.09;93.20;101536.38;5282046;28;20036;-75
2022/07/21 03:41:46;;;;;;;17.30;15.60;;;;;;;18.18;92.87;101541.34;5281396;28;20028;-74
2022/07/21 03:44:18;;;;;;;18.10;16.40;;;;;;;18.14;93.22;101534.44;5263924;28;20059;-75
2022/07/21 03:46:49;;;;;;;17.53;15.73;;;;;;;18.15;93.02;101541.44;5264246;28;20444;-74
2022/07/21 03:49:22;;;;;;;16.57;14.97;;;;;;;18.25;93.00;101535.88;5281535;28;20154;-73
2022/07/21 03:51:54;;;;;;;17.27;15.32;;;;;;;18.19;92.94;101542.22;5281525;28;20379;-74
2022/07/21 03:54:25;;;;;;;19.97;16.73;;;;;;;18.19;92.45;101543.09;5281556;28;20097;-75
2022/07/21 03:56:57;;;;;;;18.10;15.30;;;;;;;18.15;92.50;101549.38;5282004;28;20025;-75
2022/07/21 03:59:28;;;;;;;16.47;14.77;;;;;;;18.23;92.08;101549.13;5283786;28;20047;-75
2022/07/21 04:01:59;;;;;;;16.87;15.27;;;;;;;18.16;92.19;101553.75;5286340;28;20044;-75
2022/07/21 04:04:31;;;;;;;16.20;14.03;;;;;;;18.15;91.85;101553.78;5286727;28;20036;-75
2022/07/21 04:07:02;;;;;;;14.90;13.40;;;;;;;18.19;92.00;101551.00;5289223;28;20036;-74
2022/07/21 04:09:33;;;;;;;17.60;15.20;;;;;;;18.16;92.64;101560.78;5287732;28;20064;-76
2022/07/21 04:12:05;;;;;;;18.60;13.97;;;;;;;18.11;92.80;101566.22;5289165;28;20029;-75
2022/07/21 04:14:37;;;;;;;17.33;13.95;;;;;;;18.19;92.96;101558.94;5285860;28;20029;-76
2022/07/21 04:17:08;;;;;;;17.10;14.63;;;;;;;18.17;93.07;101563.38;5285689;28;20036;-75
2022/07/21 04:19:39;;;;;;;15.37;13.70;;;;;;;18.22;92.78;101560.59;5285478;28;20357;-75
2022/07/21 04:22:11;;;;;;;15.87;13.63;;;;;;;18.11;93.86;101558.31;5285580;28;20060;-75
2022/07/21 04:24:42;;;;;;;16.17;14.40;;;;;;;17.90;95.32;101557.19;5285260;28;20086;-75
2022/07/21 04:27:13;;;;;;;17.97;16.07;;;;;;;17.72;96.67;101555.09;5285109;28;20037;-76
2022/07/21 04:29:45;;;;;;;21.57;16.33;;;;;;;17.63;97.92;101554.47;5266988;28;20036;-76
2022/07/21 04:32:16;;;;;;;18.97;16.43;;;;;;;17.54;99.42;101549.47;5285157;28;20375;-77
2022/07/21 04:34:48;;;;;;;17.23;15.63;;;;;;;17.56;100.00;101552.06;5285097;28;20028;-76
2022/07/21 04:37:19;;;;;;;18.30;15.73;;;;;;;17.53;100.00;101545.09;5284587;28;20032;-76
2022/07/21 04:39:50;;;;;;;16.00;14.20;;;;;;;17.58;100.00;101550.22;5285405;28;20076;-76
2022/07/21 04:42:22;;;;;;;20.20;15.23;;;;;;;17.57;100.00;101545.88;5284689;28;20562;-76
2022/07/21 04:44:53;;;;;;;19.13;16.10;;;;;;;17.55;100.00;101539.78;5284424;28;20072;-76
2022/07/21 04:47:25;;;;;;;19.40;15.10;;;;;;;17.63;100.00;101550.97;5284233;28;20450;-76
2022/07/21 04:49:56;;;;;;;16.57;14.87;;;;;;;17.62;100.00;101544.81;5266915;28;20025;-76
2022/07/21 04:52:28;;;;;;;20.30;16.42;;;;;;;17.60;100.00;101553.72;5267038;28;20037;-77
2022/07/21 04:54:59;;;;;;;17.93;15.30;;;;;;;17.58;100.00;101555.50;5284362;28;20032;-76
2022/07/21 04:57:30;;;;;;;21.60;15.80;;;;;;;17.58;100.00;101561.66;5284308;28;20025;-76
2022/07/21 05:00:04;;;;;;;19.97;15.77;;;;;;;17.53;100.00;101558.28;5284691;28;20051;-77
2022/07/21 05:02:36;;;;;;;18.85;15.05;;;;;;;17.60;100.00;101553.72;5284323;28;20325;-77
2022/07/21 05:05:08;;;;;;;16.33;14.77;;;;;;;17.66;100.00;101549.09;5284253;28;20070;-76
2022/07/21 05:07:39;;;;;;;21.45;16.35;;;;;;;17.64;100.00;101557.97;5284947;28;20036;-78
2022/07/21 05:10:13;;;;;;;17.77;15.27;;;;;;;17.71;99.81;101562.16;5284005;28;20084;-76
2022/07/21 05:12:45;;;;;;;16.50;14.85;;;;;;;17.77;100.00;101559.31;5284062;28;20032;-76
2022/07/21 05:15:17;;;;;;;21.20;16.60;;;;;;;17.86;99.23;101556.41;5284082;28;20089;-76
2022/07/21 05:17:49;;;;;;;18.35;14.13;;;;;;;17.83;98.56;101559.13;5283615;28;20298;-77
2022/07/21 05:20:20;;;;;;;17.27;15.18;;;;;;;17.84;98.27;101565.28;5284431;28;20040;-77
2022/07/21 05:22:52;;;;;;;19.43;14.17;;;;;;;17.86;98.08;101551.13;5283724;28;20036;-76
2022/07/21 05:25:23;;;;;;;16.23;13.23;;;;;;;17.90;97.95;101551.91;5284275;28;20041;-76
2022/07/21 05:27:54;;;;;;;16.20;14.53;;;;;;;17.98;97.86;101549.03;5283976;28;20029;-76
2022/07/21 05:30:26;;;;;;;16.97;13.17;;;;;;;17.98;97.45;101552.56;5284006;28;20067;-78
2022/07/21 05:32:57;;;;;;;16.83;13.67;;;;;;;18.13;96.64;101553.84;5283785;28;20037;-76
2022/07/21 05:35:30;;;;;;;17.40;13.47;;;;;;;18.03;96.24;101545.34;5283926;28;20372;-75
2022/07/21 05:38:02;;;;;;;16.35;13.52;;;;;;;17.98;95.26;101549.94;5249051;28;20033;-76
2022/07/21 05:40:33;;;;;;;15.43;13.02;;;;;;;17.99;96.23;101542.88;5283190;28;20053;-76
2022/07/21 05:43:05;;;;;;;17.37;13.03;;;;;;;17.97;95.83;101547.34;5283078;28;20049;-75
2022/07/21 05:45:36;;;;;;;19.17;12.80;;;;;;;18.01;94.86;101555.06;5283442;28;20024;-75
2022/07/21 05:48:08;;;;;;;17.17;13.23;;;;;;;18.03;95.11;101548.00;5265336;28;20040;-75
2022/07/21 05:50:39;;;;;;;17.93;13.73;;;;;;;18.04;95.22;101543.56;5283232;28;20099;-76
2022/07/21 05:53:11;;;;;;;17.33;14.33;;;;;;;18.18;94.94;101538.72;5283200;28;20036;-76
2022/07/21 05:55:42;;;;;;;15.40;12.80;;;;;;;18.20;94.83;101541.31;5283164;28;20024;-76
2022/07/21 05:58:14;;;;;;;17.77;14.23;;;;;;;18.27;94.78;101541.97;5283034;28;20032;-76
2022/07/21 06:01:07;;;;;;;21.30;15.40;;;;;;;18.31;93.73;101549.72;5264930;28;20093;-75
2022/07/21 06:03:48;;;;;;;18.73;15.93;;;;;;;18.26;93.28;101550.78;5282684;28;20112;-77
2022/07/21 06:06:19;;;;;;;;;;;;;;;18.36;92.91;101550.44;5283322;28;20135;-75
2022/07/21 06:08:51;;;;;;;21.40;16.37;;;;;;;18.43;93.42;101548.44;5282670;28;20309;-75
2022/07/21 06:11:23;;;;;;;27.55;17.05;;;;;;;18.41;93.16;101545.88;5282827;28;20028;-76
2022/07/21 06:13:55;;;;;;;22.75;17.38;;;;;;;18.51;92.87;101554.34;5283024;28;20027;-76
2022/07/21 06:16:26;;;;;;;26.73;19.90;;;;;;;18.60;91.33;101547.91;5282954;28;20089;-76
2022/07/21 06:18:58;;;;;;;27.17;19.13;;;;;;;18.90;91.32;101547.75;5282520;28;20033;-75
2022/07/21 06:21:29;;;;;;;26.43;18.80;;;;;;;19.12;89.21;101547.84;5281628;28;20028;-75
2022/07/21 06:24:01;;;;;;;26.40;19.53;;;;;;;19.26;87.55;101545.56;5282481;28;20179;-74
2022/07/21 06:26:33;;;;;;;25.92;19.15;;;;;;;19.41;87.81;101551.22;5282182;28;20384;-76
2022/07/21 06:29:06;;;;;;;30.45;20.48;;;;;;;19.59;86.09;101544.34;5282220;28;20032;-75
2022/07/21 06:31:37;;;;;;;23.55;20.08;;;;;;;19.79;84.28;101552.41;5286799;28;20468;-77
2022/07/21 06:34:08;;;;;;;31.73;20.13;;;;;;;20.03;83.86;101547.94;5282586;28;20031;-77
2022/07/21 06:36:40;;;;;;;23.33;19.13;;;;;;;20.29;83.35;101540.72;5282043;28;20032;-78
2022/07/21 06:39:14;;;;;;;22.53;19.20;;;;;;;20.20;81.50;101555.16;5282045;28;20044;-76
2022/07/21 06:41:45;;;;;;;25.08;19.35;;;;;;;20.23;81.50;101557.69;5281532;28;20167;-75
2022/07/21 06:44:17;;;;;;;22.80;18.70;;;;;;;19.95;82.24;101560.63;5282293;28;20176;-76
2022/07/21 06:46:48;;;;;;;23.13;19.07;;;;;;;19.87;82.46;101562.69;5282257;28;20048;-75
2022/07/21 06:49:19;;;;;;;28.37;21.10;;;;;;;19.66;83.47;101570.50;5281952;28;20032;-74
2022/07/21 06:51:51;;;;;;;30.10;20.43;;;;;;;19.79;83.38;101567.44;5282246;28;20490;-75
2022/07/21 06:54:23;;;;;;;22.52;20.20;;;;;;;19.74;83.67;101579.91;5282283;28;20029;-76
2022/07/21 06:56:54;;;;;;;27.07;20.53;;;;;;;19.76;83.25;101572.84;5264094;28;20035;-75
2022/07/21 06:59:25;;;;;;;23.00;19.17;;;;;;;19.74;83.84;101574.63;5281816;28;20024;-77
2022/07/21 07:01:58;;;;;;;24.93;18.73;;;;;;;19.65;84.64;101574.06;5281580;28;20028;-76
2022/07/21 07:04:30;;;;;;;25.73;19.75;;;;;;;19.59;85.01;101576.09;5263638;28;20058;-77
2022/07/21 07:07:02;;;;;;;23.00;19.00;;;;;;;19.54;85.22;101589.47;5281432;28;20497;-75
2022/07/21 07:09:33;;;;;;;26.95;19.92;;;;;;;19.43;84.63;101587.25;5282165;28;20039;-76
2022/07/21 07:12:08;;;;;;;23.90;19.40;;;;;;;19.21;86.19;101589.81;5281933;28;20033;-77
2022/07/21 07:14:40;;;;;;;26.83;20.67;;;;;;;19.11;86.41;101597.22;5263975;28;20039;-74
2022/07/21 07:17:15;;;;;;;22.40;19.90;;;;;;;19.01;87.10;101584.38;5281719;28;20040;-77
2022/07/21 07:19:48;;;;;;;22.25;17.83;;;;;;;19.03;88.24;101585.19;5263642;28;20476;-74
2022/07/21 07:22:19;;;;;;;22.83;18.38;;;;;;;19.12;87.90;101579.56;5281645;28;20490;-76
2022/07/21 07:24:50;;;;;;;27.17;18.60;;;;;;;19.15;87.64;101573.31;5281800;28;20036;-77
2022/07/21 07:27:22;;;;;;;21.80;19.13;;;;;;;19.03;87.57;101574.59;5281731;28;20028;-75
2022/07/21 07:29:53;;;;;;;23.83;19.67;;;;;;;19.15;88.31;101571.53;5281790;28;20028;-76
2022/07/21 07:32:24;;;;;;;24.77;19.73;;;;;;;19.18;88.02;101574.06;5281692;28;20463;-77
2022/07/21 07:34:56;;;;;;;26.97;17.43;;;;;;;19.48;87.05;101579.13;5284091;28;20115;-77
2022/07/21 07:37:27;;;;;;;22.27;18.43;;;;;;;19.52;87.11;101583.41;5267493;28;20025;-74
2022/07/21 07:39:59;;;;;;;20.80;16.70;;;;;;;19.46;87.23;101580.97;5285429;28;20157;-76
2022/07/21 07:42:30;;;;;;;25.30;18.80;;;;;;;19.02;91.65;101578.19;5284992;28;20468;-75
2022/07/21 07:45:04;;;;;;;24.07;18.87;;;;;;;18.50;97.05;101589.59;5284296;28;20037;-76
2022/07/21 07:47:35;;;;;;;21.02;17.23;;;;;;;18.17;99.31;101578.34;5284985;28;20064;-75
2022/07/21 07:50:08;;;;;;;19.30;16.83;;;;;;;18.01;100.00;101584.09;5284482;28;20024;-76
2022/07/21 07:52:42;;;;;;;21.67;17.60;;;;;;;17.84;100.00;101589.88;5284484;28;20396;-75
2022/07/21 07:55:13;;;;;;;18.63;16.63;;;;;;;17.62;100.00;101589.63;5283743;28;20363;-74
2022/07/21 07:57:45;;;;;;;19.20;16.83;;;;;;;17.54;100.00;101591.63;5266381;28;20082;-74
2022/07/21 08:00:19;;;;;;;20.00;16.53;;;;;;;17.54;100.00;101588.16;5283818;28;20060;-76
2022/07/21 08:02:50;;;;;;;23.08;18.48;;;;;;;17.54;100.00;101588.16;5283547;28;20100;-75
2022/07/21 08:05:22;;;;;;;17.73;15.40;;;;;;;17.46;100.00;101583.09;5284114;28;20024;-73
2022/07/21 08:07:53;;;;;;;18.20;14.63;;;;;;;17.39;100.00;101587.69;5283855;28;20054;-74
2022/07/21 08:10:24;;;;;;;19.77;15.03;;;;;;;17.42;100.00;101582.31;5283748;28;20025;-73
2022/07/21 08:12:56;;;;;;;16.67;13.20;;;;;;;17.45;100.00;101582.25;5284100;28;20093;-74
2022/07/21 08:15:27;;;;;;;16.83;14.13;;;;;;;17.30;100.00;101585.31;5290708;28;20103;-75
2022/07/21 08:17:59;;;;;;;15.55;13.35;;;;;;;17.37;100.00;101581.59;5265737;28;20090;-74
2022/07/21 08:20:30;;;;;;;15.27;13.67;;;;;;;17.36;100.00;101592.19;5283587;28;20098;-73
2022/07/21 08:23:03;;;;;;;14.23;12.80;;;;;;;17.26;100.00;101588.94;5283596;28;20036;-73
2022/07/21 08:25:34;;;;;;;14.07;12.57;;;;;;;17.29;100.00;101586.19;5283630;28;20033;-75
2022/07/21 08:28:06;;;;;;;13.87;12.47;;;;;;;17.22;100.00;101590.78;5283553;28;20080;-74
2022/07/21 08:30:38;;;;;;;13.00;11.77;;;;;;;17.34;100.00;101588.69;5265670;28;20290;-75
2022/07/21 08:33:10;;;;;;;12.48;10.93;;;;;;;17.31;100.00;101589.69;5283448;28;20028;-74
2022/07/21 08:35:42;;;;;;;13.57;12.18;;;;;;;17.45;100.00;101581.34;5283516;28;20115;-74
2022/07/21 08:38:13;;;;;;;13.50;11.97;;;;;;;17.46;100.00;101589.22;5282987;28;20086;-75
2022/07/21 08:40:46;;;;;;;16.10;11.87;;;;;;;17.44;100.00;101587.56;5283108;28;20274;-75
2022/07/21 08:43:17;;;;;;;13.30;12.00;;;;;;;17.64;100.00;101592.22;5239262;28;1258581;-74
2022/07/21 08:45:49;;;;;;;13.80;12.40;;;;;;;17.64;100.00;101589.59;5283692;28;20119;-74
2022/07/21 08:48:25;;;;;;;15.00;13.50;;;;;;;17.51;100.00;101591.72;5266401;28;20032;-74
2022/07/21 08:50:56;;;;;;;14.05;12.55;;;;;;;17.43;100.00;101599.84;5285147;28;20040;-74
2022/07/21 08:53:28;;;;;;;14.20;12.83;;;;;;;17.41;100.00;101591.13;5284180;28;20377;-75
2022/07/21 08:56:00;;;;;;;19.63;14.68;;;;;;;17.33;100.00;101593.13;5283945;28;20286;-73
2022/07/21 08:58:31;;;;;;;17.70;14.80;;;;;;;17.62;100.00;101594.06;5284154;28;20324;-73
2022/07/21 09:01:03;;;;;;;16.47;14.77;;;;;;;17.45;100.00;101595.41;5283900;28;20134;-73
2022/07/21 09:03:35;;;;;;;17.45;14.48;;;;;;;17.52;100.00;101596.09;5284098;28;20132;-74
2022/07/21 09:06:08;;;;;;;17.97;14.63;;;;;;;17.55;100.00;101603.03;5284150;28;20037;-73
2022/07/21 09:08:41;;;;;;;17.83;16.05;;;;;;;17.50;100.00;101596.16;5283822;28;20024;-73
2022/07/21 09:11:24;;;;;;;19.17;17.27;;;;;;;17.57;100.00;101595.97;5283689;28;20051;-73
2022/07/21 09:14:10;;;;;;;20.13;17.02;;;;;;;17.65;100.00;101601.88;5283463;28;20038;-74
2022/07/21 09:16:44;;;;;;;18.08;16.25;;;;;;;17.58;100.00;101598.56;5284006;28;20139;-73
2022/07/21 09:19:22;;;;;;;16.42;14.70;;;;;;;17.63;100.00;101601.94;5283227;28;20398;-74
2022/07/21 09:21:57;;;;;;;16.17;14.48;;;;;;;17.67;100.00;101603.53;5265653;28;20032;-73
2022/07/21 09:24:34;;;;;;;14.27;12.82;;;;;;;17.74;100.00;101612.16;5283910;28;20029;-74
2022/07/21 09:27:11;;;;;;;16.38;14.73;;;;;;;17.76;100.00;101615.63;5283779;28;20479;-73
2022/07/21 09:29:48;;;;;;;14.50;13.10;;;;;;;17.89;100.00;101613.50;5283597;28;20036;-73
2022/07/21 09:32:30;;;;;;;12.98;11.82;;;;;;;17.74;100.00;101617.44;5283594;28;20060;-73
2022/07/21 09:35:14;;;;;;;13.43;12.07;;;;;;;17.61;100.00;101616.06;5283018;28;20036;-73
2022/07/21 09:37:45;;;;;;;13.00;11.80;;;;;;;17.54;100.00;101617.16;5283383;28;20111;-74
2022/07/21 09:40:17;;;;;;;11.50;10.30;;;;;;;17.46;100.00;101626.13;5283136;28;20174;-74
2022/07/21 09:42:50;;;;;;;11.13;9.80;;;;;;;17.47;100.00;101622.59;5283196;28;20158;-73
2022/07/21 09:45:22;;;;;;;10.73;9.45;;;;;;;17.39;100.00;101632.47;5283284;28;20123;-73
2022/07/21 09:47:53;;;;;;;9.30;8.40;;;;;;;17.27;100.00;101628.41;5283534;28;20039;-73
2022/07/21 09:50:24;;;;;;;10.33;9.20;;;;;;;17.38;100.00;101628.13;5282859;28;20037;-73
2022/07/21 09:52:57;;;;;;;9.07;8.20;;;;;;;17.24;100.00;101623.25;5265214;28;20040;-73
2022/07/21 09:55:30;;;;;;;;;;;;;;;17.10;100.00;101631.50;5283272;28;20395;-73
2022/07/21 09:58:02;;;;;;;9.85;8.68;;;;;;;17.08;100.00;101632.44;5281879;28;19921;-73
2022/07/21 10:00:33;;;;;;;10.30;9.20;;;;;;;17.06;100.00;101626.34;5282941;28;20485;-74
2022/07/21 10:03:05;;;;;;;11.80;10.30;;;;;;;17.06;100.00;101632.47;5282649;28;20377;-74
2022/07/21 10:05:37;;;;;;;13.68;10.38;;;;;;;17.09;100.00;101640.28;5282729;28;20515;-75
2022/07/21 10:08:09;;;;;;;11.23;10.13;;;;;;;17.07;100.00;101636.84;5282556;28;20040;-73
2022/07/21 10:10:40;;;;;;;11.77;10.77;;;;;;;17.17;100.00;101641.88;5282503;28;20040;-73
2022/07/21 10:13:12;;;;;;;13.13;11.50;;;;;;;17.17;100.00;101648.00;5282401;28;20358;-74
2022/07/21 10:15:46;;;;;;;12.52;11.30;;;;;;;17.26;100.00;101649.56;5282223;28;20398;-74
2022/07/21 10:18:22;;;;;;;12.48;11.38;;;;;;;17.20;100.00;101654.97;5282690;28;20460;-73
2022/07/21 10:21:01;;;;;;;12.23;11.13;;;;;;;17.42;100.00;101656.13;5282414;28;20101;-75
2022/07/21 10:23:41;;;;;;;11.00;10.05;;;;;;;17.34;100.00;101660.75;5282085;28;20112;-74
2022/07/21 10:26:12;;;;;;;11.40;10.30;;;;;;;17.44;100.00;101664.00;5282087;28;20083;-74
2022/07/21 10:28:44;;;;;;;11.70;10.47;;;;;;;17.45;100.00;101661.31;5282418;28;20029;-74
2022/07/21 10:31:21;;;;;;;11.63;10.43;;;;;;;17.48;100.00;101668.25;5282171;28;20028;-74
2022/07/21 10:33:55;;;;;;;12.50;11.27;;;;;;;17.65;100.00;101665.16;5282509;28;20363;-74
2022/07/21 10:36:26;;;;;;;12.52;11.30;;;;;;;17.70;100.00;101673.81;5282088;28;20439;-72
2022/07/21 10:39:08;;;;;;;12.03;10.73;;;;;;;17.58;100.00;101675.03;5282566;28;20127;-73
2022/07/21 10:41:40;;;;;;;12.35;11.05;;;;;;;17.58;100.00;101675.03;5281562;28;20062;-73
2022/07/21 10:44:27;;;;;;;12.13;10.93;;;;;;;17.74;100.00;101678.09;5281802;28;20032;-73
2022/07/21 10:47:08;;;;;;;12.70;11.40;;;;;;;17.77;100.00;101672.69;5281406;28;20032;-74
2022/07/21 10:49:44;;;;;;;12.05;10.85;;;;;;;17.67;100.00;101674.72;5282147;28;20039;-74
2022/07/21 10:52:34;;;;;;;11.48;10.02;;;;;;;17.44;100.00;101682.44;5281457;28;20028;-74
2022/07/21 10:55:26;;;;;;;11.30;10.05;;;;;;;17.33;100.00;101680.09;5281313;28;20032;-74
2022/07/21 10:58:27;;;;;;;9.40;8.38;;;;;;;17.19;100.00;101676.94;5281796;28;20491;-75
2022/07/21 11:01:01;;;;;;;10.30;9.27;;;;;;;17.12;100.00;101690.28;5272262;28;20080;-73
2022/07/21 11:03:35;;;;;;;11.68;9.38;;;;;;;17.13;100.00;101685.91;5281626;28;20032;-74
2022/07/21 11:06:06;;;;;;;12.55;9.77;;;;;;;17.19;100.00;101680.44;5281758;28;20475;-74
2022/07/21 11:08:44;;;;;;;11.27;9.90;;;;;;;17.23;100.00;101684.75;5281375;28;20126;-75
2022/07/21 11:11:27;;;;;;;13.45;9.45;;;;;;;17.26;100.00;101682.03;5281474;28;20032;-75
2022/07/21 11:14:21;;;;;;;13.30;9.10;;;;;;;17.44;100.00;101685.06;5281496;28;20047;-75
2022/07/21 11:16:52;;;;;;;13.60;10.00;;;;;;;17.64;100.00;101688.00;5263990;28;20056;-73
2022/07/21 11:19:49;;;;;;;11.90;9.17;;;;;;;17.75;100.00;101689.50;5281449;28;20446;-74
2022/07/21 11:22:21;;;;;;;9.82;7.90;;;;;;;17.65;100.00;101688.88;5281484;28;20024;-74
2022/07/21 11:24:57;;;;;;;;;;;;;;;17.61;100.00;101692.50;5281893;28;20024;-74
2022/07/21 11:27:31;;;;;;;9.73;7.32;;;;;;;17.61;100.00;101696.03;5281342;28;20264;-73
2022/07/21 11:30:07;;;;;;;13.00;8.50;;;;;;;17.57;100.00;101696.16;5281144;28;20430;-74
2022/07/21 11:32:38;;;;;;;11.27;8.40;;;;;;;17.48;100.00;101700.78;5281179;28;20041;-75
2022/07/21 11:35:12;;;;;;;10.60;9.20;;;;;;;17.31;100.00;101709.13;5281376;28;20028;-74
2022/07/21 11:37:45;;;;;;;13.32;8.35;;;;;;;17.30;100.00;101707.38;5281602;28;20107;-76